Time;durP1;ratioP1;P1;durP2;ratioP2;P2;SDS_P1;SDS_P2;PMS_P1;PMS_P2;Temp;Humidity;BMP_temperature;BMP_pressure;BME280_temperature;BME280_humidity;BME280_pressure;Samples;Min_cycle;Max_cycle;Signal;HPM_P1;HPM_P2
2022/03/20 00:00:42;;;;;;;9.43;5.27;;;4.60;99.90;;;;;;4917466;29;20237;-60
2022/03/20 00:03:12;;;;;;;9.83;5.93;;;4.60;99.90;;;;;;4917510;29;20975;-60
2022/03/20 00:05:42;;;;;;;11.00;6.10;;;4.50;99.90;;;;;;4917484;29;20236;-60
2022/03/20 00:08:11;;;;;;;7.07;5.50;;;4.50;99.90;;;;;;4917367;29;20367;-60
2022/03/20 00:10:42;;;;;;;9.63;5.90;;;4.40;99.90;;;;;;4917096;29;20476;-60
2022/03/20 00:13:13;;;;;;;7.57;5.57;;;4.40;99.90;;;;;;4917593;29;20469;-60
2022/03/20 00:15:42;;;;;;;8.60;6.13;;;4.40;99.90;;;;;;4917395;29;20990;-60
2022/03/20 00:18:10;;;;;;;8.27;5.83;;;4.50;99.90;;;;;;4921372;29;21038;-60
2022/03/20 00:20:40;;;;;;;11.03;6.17;;;4.60;99.90;;;;;;4936203;29;20482;-60
2022/03/20 00:23:10;;;;;;;10.50;6.20;;;4.40;99.90;;;;;;4923611;29;20487;-60
2022/03/20 00:25:39;;;;;;;7.97;5.80;;;4.40;99.90;;;;;;4917339;29;20511;-60
2022/03/20 00:28:08;;;;;;;8.63;5.70;;;4.40;99.90;;;;;;4919011;29;20261;-60
2022/03/20 00:30:38;;;;;;;9.00;6.17;;;4.40;99.90;;;;;;4917052;29;20980;-60
2022/03/20 00:33:07;;;;;;;11.13;6.47;;;4.40;99.90;;;;;;4917136;29;20476;-60
2022/03/20 00:35:36;;;;;;;7.90;6.70;;;4.40;99.90;;;;;;4916984;29;20483;-60
2022/03/20 00:38:05;;;;;;;11.70;6.90;;;4.30;99.90;;;;;;4917218;29;20534;-60
2022/03/20 00:40:33;;;;;;;10.30;6.60;;;4.40;99.90;;;;;;4916990;29;20488;-60
2022/03/20 00:43:01;;;;;;;11.00;6.93;;;4.30;99.90;;;;;;4917060;29;20791;-60
2022/03/20 00:45:29;;;;;;;13.23;7.03;;;4.30;99.90;;;;;;4916683;29;20704;-61
2022/03/20 00:47:58;;;;;;;11.60;7.20;;;4.30;99.90;;;;;;4916877;29;20327;-60
2022/03/20 00:50:28;;;;;;;14.07;7.47;;;4.30;99.90;;;;;;4915971;29;20244;-60
2022/03/20 00:52:57;;;;;;;12.80;7.10;;;4.30;99.90;;;;;;4916854;29;20241;-60
2022/03/20 00:55:26;;;;;;;11.63;7.10;;;4.30;99.90;;;;;;4916688;29;20834;-60
2022/03/20 00:57:54;;;;;;;11.47;7.40;;;4.30;99.90;;;;;;4916789;29;20487;-60
2022/03/20 01:00:22;;;;;;;9.37;7.97;;;4.20;99.90;;;;;;4916655;29;20267;-60
2022/03/20 01:02:50;;;;;;;13.47;7.87;;;4.20;99.90;;;;;;4916536;29;20476;-60
2022/03/20 01:05:20;;;;;;;16.10;9.50;;;4.20;99.90;;;;;;4916844;29;20237;-60
2022/03/20 01:07:48;;;;;;;13.10;9.13;;;4.10;99.90;;;;;;4917201;29;21138;-59
2022/03/20 01:10:16;;;;;;;13.17;9.73;;;4.20;99.90;;;;;;4918828;29;20496;-60
2022/03/20 01:12:44;;;;;;;16.73;10.30;;;4.20;99.90;;;;;;4916504;29;20248;-60
2022/03/20 01:15:15;;;;;;;15.23;10.67;;;4.20;99.90;;;;;;4916451;29;20236;-59
2022/03/20 01:17:48;;;;;;;15.83;10.47;;;4.10;99.90;;;;;;4915884;29;20232;-61
2022/03/20 01:20:16;;;;;;;16.97;10.37;;;4.10;99.90;;;;;;4916867;29;20563;-60
2022/03/20 01:22:45;;;;;;;15.70;10.40;;;4.20;99.90;;;;;;4925537;29;20498;-60
2022/03/20 01:25:20;;;;;;;16.90;10.63;;;4.10;99.90;;;;;;4935026;29;20854;-60
2022/03/20 01:27:48;;;;;;;14.83;10.33;;;4.10;99.90;;;;;;4931712;29;20491;-60
2022/03/20 01:30:16;;;;;;;14.33;9.33;;;4.10;99.90;;;;;;4935368;29;20531;-60
2022/03/20 01:32:44;;;;;;;17.97;10.13;;;4.10;99.90;;;;;;4934959;29;20235;-60
2022/03/20 01:35:12;;;;;;;14.77;11.43;;;4.20;99.90;;;;;;4916263;29;20239;-60
2022/03/20 01:37:42;;;;;;;15.27;10.13;;;4.20;99.90;;;;;;4915753;29;20492;-60
2022/03/20 01:40:11;;;;;;;14.37;10.43;;;4.10;99.90;;;;;;4915861;29;20299;-60
2022/03/20 01:42:40;;;;;;;15.33;9.90;;;4.10;99.90;;;;;;4915884;29;20460;-60
2022/03/20 01:45:17;;;;;;;14.30;11.00;;;4.00;99.90;;;;;;4915988;29;20493;-61
2022/03/20 01:47:47;;;;;;;16.27;10.70;;;4.10;99.90;;;;;;4916397;29;20947;-60
2022/03/20 01:50:16;;;;;;;19.33;12.00;;;4.10;99.90;;;;;;4934970;29;20484;-61
2022/03/20 01:52:45;;;;;;;17.37;11.73;;;4.10;99.90;;;;;;4934545;29;20999;-60
2022/03/20 01:55:16;;;;;;;16.53;11.17;;;4.00;99.90;;;;;;4915956;29;20247;-61
2022/03/20 01:57:45;;;;;;;17.30;11.67;;;4.00;99.90;;;;;;4915709;29;20311;-60
2022/03/20 02:00:16;;;;;;;18.87;11.57;;;3.90;99.90;;;;;;4915772;29;20498;-60
2022/03/20 02:02:45;;;;;;;18.27;11.23;;;3.80;99.90;;;;;;4897869;29;20833;-60
2022/03/20 02:05:14;;;;;;;14.67;12.00;;;3.80;99.90;;;;;;4915599;29;20468;-60
2022/03/20 02:07:44;;;;;;;19.10;11.63;;;3.80;99.90;;;;;;4915186;29;20491;-60
2022/03/20 02:10:12;;;;;;;19.20;11.73;;;3.80;99.90;;;;;;4918181;29;20832;-60
2022/03/20 02:12:42;;;;;;;15.10;11.53;;;3.90;99.90;;;;;;4915374;29;20250;-60
2022/03/20 02:15:13;;;;;;;16.63;12.00;;;3.90;99.90;;;;;;4915516;29;20903;-60
2022/03/20 02:17:42;;;;;;;18.03;12.60;;;3.80;99.90;;;;;;4915449;29;20235;-60
2022/03/20 02:20:11;;;;;;;17.73;12.47;;;3.90;99.90;;;;;;4896344;29;20973;-60
2022/03/20 02:22:43;;;;;;;18.20;12.90;;;3.90;99.90;;;;;;4913574;29;20879;-60
2022/03/20 02:25:14;;;;;;;18.57;12.27;;;3.90;99.90;;;;;;4934094;29;21043;-60
2022/03/20 02:27:44;;;;;;;19.30;13.80;;;3.80;99.90;;;;;;4930317;29;20479;-60
2022/03/20 02:30:15;;;;;;;17.70;12.23;;;3.80;99.90;;;;;;4914735;29;20480;-60
2022/03/20 02:32:46;;;;;;;20.67;14.37;;;3.80;99.90;;;;;;4915066;29;20570;-60
2022/03/20 02:35:16;;;;;;;20.93;14.13;;;3.70;99.90;;;;;;4915138;29;21003;-60
2022/03/20 02:37:48;;;;;;;17.37;12.77;;;3.70;99.90;;;;;;4915150;29;20641;-60
2022/03/20 02:40:17;;;;;;;20.07;13.43;;;3.70;99.90;;;;;;4896257;29;20491;-60
2022/03/20 02:42:48;;;;;;;19.97;13.83;;;3.70;99.90;;;;;;4896726;29;20986;-61
2022/03/20 02:45:20;;;;;;;19.33;14.40;;;3.70;99.90;;;;;;4934023;29;20530;-60
2022/03/20 02:47:49;;;;;;;17.87;13.33;;;3.70;99.90;;;;;;4929622;29;20900;-60
2022/03/20 02:50:19;;;;;;;18.87;13.47;;;3.70;99.90;;;;;;4934212;29;20595;-60
2022/03/20 02:52:51;;;;;;;17.53;13.13;;;3.70;99.90;;;;;;4933633;29;20535;-60
2022/03/20 02:55:21;;;;;;;18.67;13.93;;;3.70;99.90;;;;;;4933453;29;20996;-61
2022/03/20 02:57:51;;;;;;;18.90;13.13;;;3.60;99.90;;;;;;4933459;29;20482;-61
2022/03/20 03:00:22;;;;;;;16.97;12.00;;;3.60;99.90;;;;;;4926731;29;20530;-61
2022/03/20 03:02:51;;;;;;;23.50;14.97;;;3.70;99.90;;;;;;4914411;29;20488;-60
2022/03/20 03:05:21;;;;;;;19.30;14.30;;;3.70;99.90;;;;;;4914481;29;20475;-60
2022/03/20 03:10:59;;;;;;;20.13;14.60;;;3.60;99.90;;;;;;4914613;29;20493;-60
2022/03/20 03:13:34;;;;;;;20.70;14.40;;;3.60;99.90;;;;;;4914083;29;20511;-60
2022/03/20 03:16:05;;;;;;;22.97;14.80;;;3.50;99.90;;;;;;4914852;29;20489;-60
2022/03/20 03:18:34;;;;;;;21.97;14.53;;;3.50;99.90;;;;;;4907917;29;20513;-60
2022/03/20 03:21:03;;;;;;;18.97;14.47;;;3.50;99.90;;;;;;4895955;29;20501;-60
2022/03/20 03:23:32;;;;;;;20.13;14.03;;;3.50;99.90;;;;;;4897177;29;20894;-60
2022/03/20 03:26:00;;;;;;;20.57;14.53;;;3.50;99.90;;;;;;4897959;29;20457;-60
2022/03/20 03:28:34;;;;;;;20.20;14.13;;;3.50;99.90;;;;;;4895167;29;20561;-60
2022/03/20 03:31:05;;;;;;;22.70;15.47;;;3.50;99.90;;;;;;4895612;29;20479;-60
2022/03/20 03:33:34;;;;;;;19.00;14.80;;;3.40;99.90;;;;;;4895753;29;21052;-60
2022/03/20 03:36:02;;;;;;;23.13;14.43;;;3.40;99.90;;;;;;4895613;29;20493;-60
2022/03/20 03:38:34;;;;;;;22.60;15.20;;;3.40;99.90;;;;;;4895253;29;20790;-60
2022/03/20 03:41:03;;;;;;;18.83;14.90;;;3.40;99.90;;;;;;4895577;29;20509;-60
2022/03/20 03:43:31;;;;;;;16.97;13.47;;;3.30;99.90;;;;;;4895272;29;20464;-60
2022/03/20 03:45:59;;;;;;;21.60;15.60;;;3.40;99.90;;;;;;4895769;29;20950;-60
2022/03/20 03:48:27;;;;;;;21.63;15.20;;;3.40;99.90;;;;;;4900814;29;20480;-60
2022/03/20 03:50:56;;;;;;;21.47;14.77;;;3.50;99.90;;;;;;4914494;29;20491;-60
2022/03/20 03:53:24;;;;;;;22.87;15.93;;;3.50;99.90;;;;;;4914179;29;20479;-60
2022/03/20 03:55:54;;;;;;;24.33;15.30;;;3.40;99.90;;;;;;4914595;29;20515;-60
2022/03/20 03:58:22;;;;;;;25.73;15.57;;;3.40;99.90;;;;;;4914152;29;20487;-60
2022/03/20 04:00:50;;;;;;;21.33;14.83;;;3.40;99.90;;;;;;4901578;29;20565;-60
2022/03/20 04:03:18;;;;;;;22.57;15.13;;;3.30;99.90;;;;;;4895233;29;20842;-60
2022/03/20 04:05:47;;;;;;;21.37;15.23;;;3.30;99.90;;;;;;4895483;29;20481;-60
2022/03/20 04:08:16;;;;;;;22.07;15.50;;;3.30;99.90;;;;;;4900087;29;20483;-60
2022/03/20 04:10:44;;;;;;;20.57;15.33;;;3.30;99.90;;;;;;4932769;29;20895;-60
2022/03/20 04:13:14;;;;;;;20.83;16.50;;;3.30;99.90;;;;;;4928953;29;20239;-60
2022/03/20 04:15:42;;;;;;;20.43;14.87;;;3.20;99.90;;;;;;4913817;29;20477;-60
2022/03/20 04:18:12;;;;;;;21.80;14.87;;;3.20;99.90;;;;;;4917375;29;20503;-60
2022/03/20 04:20:40;;;;;;;21.83;16.30;;;3.20;99.90;;;;;;4932493;29;20486;-61
2022/03/20 04:25:54;;;;;;;23.90;16.73;;;3.10;99.90;;;;;;4933408;29;20263;-60
2022/03/20 04:28:23;;;;;;;20.00;15.77;;;3.10;99.90;;;;;;4927464;29;20518;-60
2022/03/20 04:30:52;;;;;;;22.10;16.00;;;3.10;99.90;;;;;;4917346;29;20590;-60
2022/03/20 04:33:20;;;;;;;22.80;16.17;;;3.00;99.90;;;;;;4922355;29;20890;-60
2022/03/20 04:35:48;;;;;;;20.93;15.00;;;3.00;99.90;;;;;;4936034;29;20475;-60
2022/03/20 04:38:21;;;;;;;23.17;16.27;;;3.10;99.90;;;;;;4931540;29;20482;-60
2022/03/20 04:40:49;;;;;;;23.63;16.97;;;3.10;99.90;;;;;;4917182;29;20491;-60
2022/03/20 04:43:18;;;;;;;21.90;15.87;;;3.10;99.90;;;;;;4921404;29;20495;-60
2022/03/20 04:45:47;;;;;;;24.10;17.13;;;3.10;99.90;;;;;;4936031;29;20478;-60
2022/03/20 04:59:17;;;;;;;22.17;16.37;;;3.10;99.90;;;;;;4932764;29;21068;-60
2022/03/20 05:01:47;;;;;;;23.83;16.63;;;3.10;99.90;;;;;;4916613;29;20239;-60
2022/03/20 05:04:15;;;;;;;20.80;15.83;;;3.10;99.90;;;;;;4916647;29;20555;-60
2022/03/20 05:06:44;;;;;;;21.97;15.63;;;3.10;99.90;;;;;;4916714;29;20955;-60
2022/03/20 05:14:44;;;;;;;23.93;16.57;;;3.10;99.90;;;;;;4919422;29;20478;-60
2022/03/20 05:17:13;;;;;;;23.20;17.20;;;3.10;99.90;;;;;;4916409;29;20484;-60
2022/03/20 05:19:42;;;;;;;24.90;16.97;;;3.10;99.90;;;;;;4916075;29;20575;-60
2022/03/20 05:22:11;;;;;;;25.93;17.80;;;3.10;99.90;;;;;;4916156;29;21025;-60
2022/03/20 05:24:41;;;;;;;21.63;15.20;;;3.10;99.90;;;;;;4915873;29;20901;-60
2022/03/20 05:27:09;;;;;;;23.50;16.53;;;3.10;99.90;;;;;;4916177;29;20495;-60
2022/03/20 05:29:38;;;;;;;23.80;15.47;;;3.10;99.90;;;;;;4926451;29;20484;-60
2022/03/20 05:32:08;;;;;;;21.73;16.03;;;3.10;99.90;;;;;;4916667;29;20472;-61
2022/03/20 05:34:37;;;;;;;25.13;17.07;;;3.00;99.90;;;;;;4930894;29;20507;-60
2022/03/20 05:37:08;;;;;;;22.07;16.73;;;3.00;99.90;;;;;;4935005;29;20544;-60
2022/03/20 05:39:37;;;;;;;23.23;16.23;;;3.00;99.90;;;;;;4935101;29;20509;-60
2022/03/20 05:42:06;;;;;;;25.80;16.90;;;3.10;99.90;;;;;;4935383;29;20494;-60
2022/03/20 05:44:34;;;;;;;24.70;16.57;;;3.00;99.90;;;;;;4934756;29;20472;-60
2022/03/20 05:47:04;;;;;;;23.53;16.83;;;3.00;99.90;;;;;;4934950;29;20486;-60
2022/03/20 05:49:32;;;;;;;23.33;17.40;;;3.00;99.90;;;;;;4916703;29;20889;-60
2022/03/20 05:52:02;;;;;;;25.80;17.40;;;3.00;99.90;;;;;;4916011;29;20560;-60
2022/03/20 05:54:31;;;;;;;22.83;16.43;;;3.10;99.90;;;;;;4929778;29;20470;-60
2022/03/20 05:59:45;;;;;;;23.47;16.43;;;3.10;99.90;;;;;;4914055;29;20511;-60
2022/03/20 06:02:13;;;;;;;23.63;15.70;;;3.20;99.90;;;;;;4915169;29;20468;-60
2022/03/20 06:04:41;;;;;;;23.80;16.67;;;3.20;99.90;;;;;;4914865;29;20542;-60
2022/03/20 06:07:10;;;;;;;24.10;16.87;;;3.20;99.90;;;;;;4914451;29;20472;-60
2022/03/20 06:09:39;;;;;;;23.27;16.50;;;3.30;99.90;;;;;;4912505;29;20482;-60
2022/03/20 06:12:08;;;;;;;22.43;16.17;;;3.40;99.90;;;;;;4911115;29;20489;-60
2022/03/20 06:14:36;;;;;;;23.97;16.93;;;3.40;99.90;;;;;;4909430;29;20581;-61
2022/03/20 06:17:05;;;;;;;24.20;16.77;;;3.40;99.90;;;;;;4913301;29;20524;-61
2022/03/20 06:19:35;;;;;;;21.43;16.03;;;3.50;99.90;;;;;;4911434;29;20476;-61
2022/03/20 06:22:04;;;;;;;24.30;16.33;;;3.50;99.90;;;;;;4912078;29;20993;-60
2022/03/20 06:24:34;;;;;;;25.13;16.17;;;3.70;99.90;;;;;;4911507;29;20496;-61
2022/03/20 06:27:04;;;;;;;23.50;16.80;;;3.80;99.90;;;;;;4910144;29;20491;-60
2022/03/20 06:29:32;;;;;;;24.17;17.30;;;3.80;99.90;;;;;;4909609;29;20484;-60
2022/03/20 06:32:00;;;;;;;28.67;16.97;;;3.80;99.90;;;;;;4909894;29;20592;-60
2022/03/20 06:34:28;;;;;;;24.40;16.73;;;3.90;99.90;;;;;;4909818;29;20556;-59
2022/03/20 06:36:59;;;;;;;22.20;16.60;;;3.80;99.90;;;;;;4909594;29;20478;-60
2022/03/20 06:39:27;;;;;;;22.63;16.07;;;3.90;99.90;;;;;;4908855;29;20551;-60
2022/03/20 06:41:57;;;;;;;24.87;16.83;;;3.90;99.90;;;;;;4909272;29;20479;-60
2022/03/20 06:44:25;;;;;;;24.33;16.93;;;4.00;99.90;;;;;;4910558;29;20492;-60
2022/03/20 06:46:54;;;;;;;21.83;15.97;;;4.10;99.90;;;;;;4909703;29;20518;-60
2022/03/20 06:49:23;;;;;;;23.87;15.87;;;4.30;99.90;;;;;;4907434;29;20486;-60
2022/03/20 06:51:51;;;;;;;22.47;16.57;;;4.30;99.90;;;;;;4910685;29;21117;-61
2022/03/20 06:54:20;;;;;;;22.93;16.10;;;4.40;99.90;;;;;;4911081;29;20460;-59
2022/03/20 06:56:48;;;;;;;21.70;16.43;;;4.40;99.90;;;;;;4913015;29;20558;-60
2022/03/20 06:59:18;;;;;;;21.43;16.00;;;4.50;99.90;;;;;;4911875;29;20448;-60
2022/03/20 07:01:47;;;;;;;25.27;17.00;;;4.60;99.90;;;;;;4911328;29;20452;-60
2022/03/20 07:04:15;;;;;;;23.40;16.20;;;4.70;99.90;;;;;;4910115;29;20921;-60
2022/03/20 07:06:43;;;;;;;20.37;15.43;;;4.80;99.90;;;;;;4910679;29;22117;-60
2022/03/20 07:09:11;;;;;;;21.13;16.07;;;4.90;99.90;;;;;;4910158;29;20479;-60
2022/03/20 07:11:40;;;;;;;22.07;15.80;;;4.90;99.90;;;;;;4911261;29;20614;-60
2022/03/20 07:14:08;;;;;;;19.67;16.17;;;5.00;99.90;;;;;;4908072;29;21130;-60
2022/03/20 07:16:38;;;;;;;21.27;14.03;;;5.10;99.90;;;;;;4913316;29;20463;-60
2022/03/20 07:19:08;;;;;;;22.00;15.40;;;5.20;99.90;;;;;;4911322;29;20452;-60
2022/03/20 07:21:36;;;;;;;23.23;16.63;;;5.20;99.90;;;;;;4911020;29;20467;-60
2022/03/20 07:24:05;;;;;;;20.83;15.30;;;5.30;99.90;;;;;;4910456;29;20825;-59
2022/03/20 07:29:33;;;;;;;18.73;14.40;;;5.40;99.90;;;;;;4864316;29;20233;-60
2022/03/20 07:32:06;;;;;;;21.17;14.57;;;5.40;99.90;;;;;;4910948;29;20311;-59
2022/03/20 07:34:39;;;;;;;20.93;12.50;;;5.50;99.90;;;;;;4908840;29;20232;-60
2022/03/20 07:37:08;;;;;;;16.70;10.90;;;5.50;99.90;;;;;;4909529;29;20236;-60
2022/03/20 07:39:37;;;;;;;19.30;14.63;;;5.50;99.90;;;;;;4906821;29;20257;-60
2022/03/20 07:42:08;;;;;;;19.63;13.43;;;5.50;99.90;;;;;;4908037;29;20254;-59
2022/03/20 07:44:42;;;;;;;20.50;14.23;;;5.70;99.90;;;;;;4907180;29;20240;-60
2022/03/20 07:47:18;;;;;;;21.33;14.57;;;5.80;99.90;;;;;;4908800;29;20258;-60
2022/03/20 07:49:48;;;;;;;20.20;14.17;;;6.10;99.90;;;;;;4907971;29;20240;-60
2022/03/20 07:52:16;;;;;;;20.93;14.63;;;6.10;99.90;;;;;;4908647;29;20253;-60
2022/03/20 07:54:45;;;;;;;19.50;12.53;;;6.10;99.90;;;;;;4908701;29;20327;-60
2022/03/20 07:57:14;;;;;;;18.70;14.07;;;6.10;99.90;;;;;;4910268;29;20267;-60
2022/03/20 07:59:44;;;;;;;20.93;13.93;;;6.10;99.90;;;;;;4911787;29;20358;-60
2022/03/20 08:02:13;;;;;;;19.27;13.23;;;6.40;99.90;;;;;;4911387;29;20242;-60
2022/03/20 08:04:42;;;;;;;20.50;14.47;;;6.50;99.90;;;;;;4910572;29;20326;-60
2022/03/20 08:07:10;;;;;;;22.50;14.80;;;6.60;99.90;;;;;;4913466;29;20236;-60
2022/03/20 08:09:38;;;;;;;20.23;13.77;;;6.60;99.90;;;;;;4911715;29;20311;-60
2022/03/20 08:12:08;;;;;;;20.33;14.57;;;6.70;99.90;;;;;;4913507;29;20272;-60
2022/03/20 08:14:57;;;;;;;18.33;13.60;;;6.80;99.90;;;;;;4912187;29;20798;-60
2022/03/20 08:17:29;;;;;;;20.93;14.80;;;6.80;99.90;;;;;;4912200;29;20298;-59
2022/03/20 08:19:58;;;;;;;20.60;13.53;;;6.80;99.90;;;;;;4912069;29;20330;-60
2022/03/20 08:22:26;;;;;;;22.97;15.27;;;6.90;99.90;;;;;;4910986;29;20251;-60
2022/03/20 08:24:54;;;;;;;20.93;14.07;;;6.90;99.90;;;;;;4916183;29;20244;-60
2022/03/20 08:27:23;;;;;;;21.47;13.43;;;6.90;99.90;;;;;;4916989;29;20339;-60
2022/03/20 08:29:53;;;;;;;20.10;14.30;;;7.10;99.90;;;;;;4928604;29;20708;-60
2022/03/20 08:32:22;;;;;;;21.60;13.87;;;7.10;99.90;;;;;;4934103;29;20263;-60
2022/03/20 08:34:52;;;;;;;19.53;14.53;;;7.30;99.90;;;;;;4927042;29;20768;-60
2022/03/20 08:37:21;;;;;;;20.83;14.73;;;7.10;99.90;;;;;;4931955;29;20287;-60
2022/03/20 08:39:49;;;;;;;17.33;13.63;;;7.10;99.90;;;;;;4913968;29;20236;-60
2022/03/20 08:42:17;;;;;;;17.87;13.60;;;7.30;99.90;;;;;;4933439;29;20244;-60
2022/03/20 08:44:45;;;;;;;19.63;14.17;;;7.60;99.90;;;;;;4924774;29;20240;-60
2022/03/20 08:47:13;;;;;;;21.23;15.10;;;7.70;99.90;;;;;;4934891;29;20323;-60
2022/03/20 08:49:42;;;;;;;18.80;13.63;;;7.60;99.90;;;;;;4927507;29;20288;-60
2022/03/20 08:52:12;;;;;;;23.37;15.00;;;7.70;99.90;;;;;;4932255;29;20339;-60
2022/03/20 08:54:40;;;;;;;19.63;14.33;;;8.00;99.90;;;;;;4927883;29;20590;-60
2022/03/20 08:57:08;;;;;;;19.77;14.60;;;8.10;99.90;;;;;;4931853;29;20236;-60
2022/03/20 08:59:36;;;;;;;21.27;15.97;;;8.30;99.90;;;;;;4932089;29;20239;-60
2022/03/20 09:02:05;;;;;;;19.27;12.50;;;8.60;99.90;;;;;;4931315;29;20240;-60
2022/03/20 09:04:33;;;;;;;20.00;14.87;;;8.50;99.90;;;;;;4928686;29;20248;-60
2022/03/20 09:07:01;;;;;;;18.97;15.20;;;8.40;99.90;;;;;;4924370;29;20244;-60
2022/03/20 09:09:30;;;;;;;21.30;15.27;;;8.40;99.90;;;;;;4918857;29;20319;-59
2022/03/20 09:11:59;;;;;;;21.27;16.20;;;8.50;99.90;;;;;;4922263;29;20272;-60
2022/03/20 09:14:27;;;;;;;19.93;14.40;;;8.50;99.90;;;;;;4926568;29;20240;-59
2022/03/20 09:19:41;;;;;;;19.63;15.20;;;8.40;99.90;;;;;;4923934;29;20300;-60
2022/03/20 09:22:11;;;;;;;21.07;14.87;;;8.50;99.90;;;;;;4926679;29;20589;-60
2022/03/20 09:24:41;;;;;;;19.43;15.23;;;8.80;99.90;;;;;;4925687;29;20315;-59
2022/03/20 09:27:09;;;;;;;23.27;15.90;;;9.00;99.90;;;;;;4927896;29;20324;-60
2022/03/20 09:29:37;;;;;;;21.00;14.13;;;9.20;99.90;;;;;;4923621;29;20533;-60
2022/03/20 09:32:07;;;;;;;21.83;15.70;;;9.20;99.90;;;;;;4917682;29;20247;-60
2022/03/20 09:34:35;;;;;;;20.03;15.00;;;9.30;99.90;;;;;;4927431;29;20268;-60
2022/03/20 09:37:03;;;;;;;20.33;16.03;;;9.40;99.90;;;;;;4929869;29;20255;-60
2022/03/20 09:39:32;;;;;;;20.07;15.63;;;9.30;99.90;;;;;;4922008;29;20649;-60
2022/03/20 09:42:06;;;;;;;18.97;14.97;;;9.40;99.90;;;;;;4920899;29;20329;-60
2022/03/20 09:44:38;;;;;;;21.50;16.00;;;9.50;99.90;;;;;;4923515;29;20645;-60
2022/03/20 09:47:11;;;;;;;23.43;16.57;;;9.60;99.90;;;;;;4930819;29;20650;-60
2022/03/20 09:49:40;;;;;;;20.33;15.97;;;9.70;99.90;;;;;;4922888;29;20324;-60
2022/03/20 09:52:08;;;;;;;21.23;16.70;;;10.10;99.90;;;;;;4915757;29;20246;-60
2022/03/20 09:54:37;;;;;;;21.50;16.17;;;10.00;99.90;;;;;;4922935;29;20296;-60
2022/03/20 09:57:08;;;;;;;21.83;16.60;;;9.70;99.90;;;;;;4927786;29;20267;-60
2022/03/20 09:59:38;;;;;;;21.90;15.87;;;10.00;99.90;;;;;;4913345;29;20255;-60
2022/03/20 10:02:08;;;;;;;21.20;15.90;;;10.30;99.90;;;;;;4915239;29;20244;-60
2022/03/20 10:04:53;;;;;;;21.00;16.17;;;10.30;99.90;;;;;;4916965;29;20351;-59
2022/03/20 10:07:22;;;;;;;21.33;16.03;;;10.30;99.90;;;;;;4916082;29;20274;-60
2022/03/20 10:10:17;;;;;;;20.53;15.87;;;10.40;99.90;;;;;;4922928;29;20703;-60
2022/03/20 10:12:50;;;;;;;19.93;15.00;;;10.50;99.90;;;;;;4913832;29;20300;-60
2022/03/20 10:15:32;;;;;;;20.53;15.03;;;10.30;99.90;;;;;;4923077;29;20245;-60
2022/03/20 10:18:07;;;;;;;23.40;16.20;;;10.30;99.90;;;;;;4913185;29;20247;-60
2022/03/20 10:20:37;;;;;;;20.73;13.87;;;10.40;99.90;;;;;;4920303;29;20296;-60
2022/03/20 10:23:26;;;;;;;21.37;15.63;;;10.60;99.90;;;;;;4913955;29;20694;-60
2022/03/20 10:25:55;;;;;;;21.37;15.17;;;10.30;99.90;;;;;;4917718;29;20325;-60
2022/03/20 10:28:31;;;;;;;22.17;16.40;;;10.60;99.90;;;;;;4918940;29;20247;-60
2022/03/20 10:30:59;;;;;;;23.07;16.43;;;10.50;99.90;;;;;;4918943;29;20730;-60
2022/03/20 10:33:27;;;;;;;22.50;16.27;;;10.60;99.90;;;;;;4914921;29;20609;-60
2022/03/20 10:36:11;;;;;;;21.40;15.90;;;10.70;99.90;;;;;;4918514;29;20248;-59
2022/03/20 10:38:41;;;;;;;19.40;15.87;;;10.70;99.90;;;;;;4918108;29;20232;-60
2022/03/20 10:41:19;;;;;;;21.47;16.27;;;10.90;99.90;;;;;;4920920;29;20255;-59
2022/03/20 10:43:49;;;;;;;21.60;15.30;;;10.80;99.90;;;;;;4920534;29;20754;-60
2022/03/20 10:46:20;;;;;;;19.80;14.63;;;11.10;99.90;;;;;;4916305;29;20246;-60
2022/03/20 10:48:50;;;;;;;21.27;15.67;;;11.20;99.90;;;;;;4914392;29;20235;-60
2022/03/20 10:51:37;;;;;;;21.83;16.53;;;11.10;99.90;;;;;;4912635;29;20261;-60
2022/03/20 10:54:09;;;;;;;22.53;16.50;;;11.10;99.90;;;;;;4914761;29;20321;-60
2022/03/20 10:56:38;;;;;;;21.27;15.50;;;11.00;99.90;;;;;;4914895;29;20247;-60
2022/03/20 10:59:15;;;;;;;23.40;15.83;;;11.50;99.90;;;;;;4915689;29;20237;-60
2022/03/20 11:01:44;;;;;;;21.17;15.57;;;11.40;99.90;;;;;;4913183;29;20805;-60
2022/03/20 11:04:15;;;;;;;20.40;15.00;;;11.60;99.90;;;;;;4914260;29;20239;-60
2022/03/20 11:06:43;;;;;;;18.67;15.63;;;11.70;99.90;;;;;;4921197;29;20292;-60
2022/03/20 11:09:12;;;;;;;20.77;16.57;;;11.60;99.90;;;;;;4914152;29;20240;-60
2022/03/20 11:11:42;;;;;;;21.53;16.20;;;11.80;99.90;;;;;;4913897;29;20331;-60
2022/03/20 11:14:15;;;;;;;19.40;15.43;;;11.80;99.90;;;;;;4923325;29;20308;-59
2022/03/20 11:16:47;;;;;;;22.50;16.43;;;11.80;99.90;;;;;;4919354;29;20245;-60
2022/03/20 11:19:17;;;;;;;19.60;15.30;;;11.70;99.90;;;;;;4928925;29;20272;-60
2022/03/20 11:21:48;;;;;;;18.40;15.23;;;11.90;99.90;;;;;;4911711;29;20255;-60
2022/03/20 11:24:18;;;;;;;22.93;16.13;;;12.20;99.90;;;;;;4914062;29;20235;-60
2022/03/20 11:26:50;;;;;;;21.70;16.60;;;12.30;99.90;;;;;;4914125;29;20245;-59
2022/03/20 11:29:23;;;;;;;21.53;16.17;;;12.50;99.90;;;;;;4910920;29;20298;-59
2022/03/20 11:31:53;;;;;;;21.97;16.07;;;12.40;99.90;;;;;;4913859;29;20704;-59
2022/03/20 11:34:24;;;;;;;19.83;15.60;;;12.40;99.80;;;;;;4913485;29;20245;-59
2022/03/20 11:37:06;;;;;;;23.00;16.93;;;12.40;98.80;;;;;;4913614;29;20254;-59
2022/03/20 11:39:35;;;;;;;21.77;14.83;;;12.30;98.40;;;;;;4912974;29;20241;-59
2022/03/20 11:42:24;;;;;;;20.50;16.20;;;12.60;99.40;;;;;;4911820;29;20248;-59
2022/03/20 11:44:54;;;;;;;20.33;15.93;;;12.70;99.10;;;;;;4912417;29;20720;-59
2022/03/20 11:47:27;;;;;;;17.73;12.97;;;12.50;97.60;;;;;;4911901;29;20601;-59
2022/03/20 11:50:14;;;;;;;22.20;15.53;;;12.40;97.70;;;;;;4911818;29;20242;-59
2022/03/20 11:52:55;;;;;;;20.13;14.70;;;12.40;97.50;;;;;;4911649;29;20240;-59
2022/03/20 11:55:32;;;;;;;20.80;15.13;;;12.50;98.40;;;;;;4904501;29;20239;-59
2022/03/20 11:58:02;;;;;;;21.03;15.20;;;12.50;97.40;;;;;;4911515;29;20247;-59
2022/03/20 12:00:33;;;;;;;22.67;14.83;;;12.50;98.00;;;;;;4913201;29;20235;-60
2022/03/20 12:03:22;;;;;;;18.50;14.47;;;12.50;97.60;;;;;;4914168;29;20274;-59
2022/03/20 12:06:06;;;;;;;17.73;14.33;;;12.70;97.40;;;;;;4912112;29;20247;-59
2022/03/20 12:08:56;;;;;;;20.83;15.80;;;12.60;97.10;;;;;;4919597;29;20656;-59
2022/03/20 12:11:34;;;;;;;19.43;15.47;;;12.70;98.00;;;;;;4932582;29;20275;-59
2022/03/20 12:14:15;;;;;;;18.93;15.40;;;12.70;97.50;;;;;;4932715;29;20246;-59
2022/03/20 12:16:54;;;;;;;21.83;15.50;;;12.80;97.80;;;;;;4915572;29;20260;-59
2022/03/20 12:19:35;;;;;;;20.83;15.30;;;12.90;96.60;;;;;;4912930;29;20238;-59
2022/03/20 12:22:10;;;;;;;19.93;15.73;;;13.00;97.00;;;;;;4921004;29;20782;-59
2022/03/20 12:24:54;;;;;;;18.57;14.87;;;13.00;97.30;;;;;;4921001;29;20263;-59
2022/03/20 12:27:44;;;;;;;18.57;15.47;;;12.80;96.00;;;;;;4917523;29;20240;-59
2022/03/20 12:30:34;;;;;;;19.77;14.87;;;12.80;95.80;;;;;;4922353;29;20672;-59
2022/03/20 12:33:04;;;;;;;21.10;15.10;;;12.80;96.10;;;;;;4921059;29;20349;-59
2022/03/20 12:35:45;;;;;;;18.90;14.57;;;12.90;95.80;;;;;;4924153;29;20588;-59
2022/03/20 12:38:35;;;;;;;20.77;13.93;;;13.00;95.40;;;;;;4917664;29;20254;-59
2022/03/20 12:41:17;;;;;;;15.67;11.90;;;12.80;94.90;;;;;;4917533;29;20242;-59
2022/03/20 12:43:58;;;;;;;19.00;14.20;;;12.80;93.10;;;;;;4921942;29;20799;-60
2022/03/20 12:46:27;;;;;;;19.40;14.20;;;13.00;94.40;;;;;;4912755;29;20258;-58
2022/03/20 12:48:57;;;;;;;19.40;13.87;;;12.80;94.40;;;;;;4918962;29;20656;-59
2022/03/20 12:51:33;;;;;;;19.57;12.17;;;12.90;94.00;;;;;;4930070;29;20318;-59
2022/03/20 12:54:10;;;;;;;19.00;12.83;;;12.90;93.00;;;;;;4923356;29;20278;-59
2022/03/20 12:56:52;;;;;;;15.40;11.90;;;12.90;92.40;;;;;;4922906;29;20293;-59
2022/03/20 12:59:20;;;;;;;17.93;13.50;;;12.90;91.60;;;;;;4921324;29;20239;-59
2022/03/20 13:01:48;;;;;;;18.47;14.20;;;13.00;91.50;;;;;;4930837;29;20239;-59
2022/03/20 13:04:18;;;;;;;21.57;14.77;;;13.00;91.90;;;;;;4928040;29;20266;-60
2022/03/20 13:06:50;;;;;;;16.27;12.80;;;13.20;92.90;;;;;;4914556;29;20305;-59
2022/03/20 13:09:18;;;;;;;19.33;13.43;;;13.20;92.60;;;;;;4914546;29;20239;-60
2022/03/20 13:11:51;;;;;;;19.13;12.43;;;13.20;91.70;;;;;;4916072;29;20335;-59
2022/03/20 13:14:21;;;;;;;17.17;13.23;;;13.20;91.50;;;;;;4915518;29;20235;-59
2022/03/20 13:16:54;;;;;;;16.63;12.53;;;13.40;91.40;;;;;;4915942;29;20307;-60
2022/03/20 13:19:31;;;;;;;18.87;13.40;;;13.20;90.60;;;;;;4914933;29;20235;-59
2022/03/20 13:22:03;;;;;;;17.30;11.67;;;13.00;90.20;;;;;;4915394;29;20322;-59
2022/03/20 13:24:33;;;;;;;18.63;12.93;;;12.80;90.10;;;;;;4915542;29;20236;-60